sensor_id;sensor_type;location;lat;lon;timestamp;P1;durP1;ratioP1;P2;durP2;ratioP2
28605;SDS011;46498;49.968;7.754;2023-09-18T00:00:20;8.35;;;4.97;;
28605;SDS011;46498;49.968;7.754;2023-09-18T00:05:21;15.30;;;5.07;;
28605;SDS011;46498;49.968;7.754;2023-09-18T00:10:23;10.63;;;4.82;;
28605;SDS011;46498;49.968;7.754;2023-09-18T00:15:26;14.13;;;5.37;;
28605;SDS011;46498;49.968;7.754;2023-09-18T00:20:27;9.15;;;4.65;;
28605;SDS011;46498;49.968;7.754;2023-09-18T00:25:29;14.73;;;4.68;;
28605;SDS011;46498;49.968;7.754;2023-09-18T00:30:31;14.82;;;4.87;;
28605;SDS011;46498;49.968;7.754;2023-09-18T00:35:32;10.63;;;5.12;;
28605;SDS011;46498;49.968;7.754;2023-09-18T00:40:33;10.35;;;4.57;;
28605;SDS011;46498;49.968;7.754;2023-09-18T00:45:34;10.70;;;4.57;;
28605;SDS011;46498;49.968;7.754;2023-09-18T00:50:38;10.52;;;4.80;;
28605;SDS011;46498;49.968;7.754;2023-09-18T00:55:40;8.87;;;4.07;;
28605;SDS011;46498;49.968;7.754;2023-09-18T01:00:41;12.35;;;5.05;;
28605;SDS011;46498;49.968;7.754;2023-09-18T01:05:44;12.63;;;5.28;;
28605;SDS011;46498;49.968;7.754;2023-09-18T01:10:47;9.10;;;4.85;;
28605;SDS011;46498;49.968;7.754;2023-09-18T01:15:58;12.70;;;4.45;;
28605;SDS011;46498;49.968;7.754;2023-09-18T01:21:06;8.25;;;5.28;;
28605;SDS011;46498;49.968;7.754;2023-09-18T01:26:07;14.27;;;6.07;;
28605;SDS011;46498;49.968;7.754;2023-09-18T01:31:08;11.20;;;5.50;;
28605;SDS011;46498;49.968;7.754;2023-09-18T01:36:09;13.55;;;4.37;;
28605;SDS011;46498;49.968;7.754;2023-09-18T01:41:12;13.82;;;4.47;;
28605;SDS011;46498;49.968;7.754;2023-09-18T01:46:13;16.30;;;4.60;;
28605;SDS011;46498;49.968;7.754;2023-09-18T01:51:14;14.15;;;4.25;;
28605;SDS011;46498;49.968;7.754;2023-09-18T01:56:16;12.77;;;4.37;;
28605;SDS011;46498;49.968;7.754;2023-09-18T02:01:17;10.05;;;4.18;;
28605;SDS011;46498;49.968;7.754;2023-09-18T02:06:18;11.50;;;4.57;;
28605;SDS011;46498;49.968;7.754;2023-09-18T02:11:19;18.27;;;5.07;;
28605;SDS011;46498;49.968;7.754;2023-09-18T02:16:20;13.05;;;4.30;;
28605;SDS011;46498;49.968;7.754;2023-09-18T02:21:24;11.88;;;4.03;;
28605;SDS011;46498;49.968;7.754;2023-09-18T02:26:26;12.85;;;4.50;;
28605;SDS011;46498;49.968;7.754;2023-09-18T02:31:27;12.27;;;4.65;;
28605;SDS011;46498;49.968;7.754;2023-09-18T02:36:28;13.57;;;4.62;;
28605;SDS011;46498;49.968;7.754;2023-09-18T02:41:29;11.60;;;3.92;;
28605;SDS011;46498;49.968;7.754;2023-09-18T02:46:30;14.60;;;4.53;;
28605;SDS011;46498;49.968;7.754;2023-09-18T02:51:31;16.95;;;4.45;;
28605;SDS011;46498;49.968;7.754;2023-09-18T02:56:32;13.90;;;4.82;;
28605;SDS011;46498;49.968;7.754;2023-09-18T03:01:33;8.65;;;3.60;;
28605;SDS011;46498;49.968;7.754;2023-09-18T03:06:37;9.52;;;4.00;;
28605;SDS011;46498;49.968;7.754;2023-09-18T03:11:39;15.25;;;4.55;;
28605;SDS011;46498;49.968;7.754;2023-09-18T03:16:40;15.45;;;4.60;;
28605;SDS011;46498;49.968;7.754;2023-09-18T03:21:41;11.82;;;4.70;;
28605;SDS011;46498;49.968;7.754;2023-09-18T03:26:42;14.38;;;3.92;;
28605;SDS011;46498;49.968;7.754;2023-09-18T03:31:43;14.75;;;4.70;;
28605;SDS011;46498;49.968;7.754;2023-09-18T03:36:44;20.33;;;5.43;;
28605;SDS011;46498;49.968;7.754;2023-09-18T03:41:46;15.60;;;4.85;;
28605;SDS011;46498;49.968;7.754;2023-09-18T03:46:46;11.55;;;4.35;;
28605;SDS011;46498;49.968;7.754;2023-09-18T03:51:47;19.23;;;4.25;;
28605;SDS011;46498;49.968;7.754;2023-09-18T03:56:49;15.40;;;5.10;;
28605;SDS011;46498;49.968;7.754;2023-09-18T04:01:49;11.82;;;4.12;;
28605;SDS011;46498;49.968;7.754;2023-09-18T04:06:50;15.60;;;4.95;;
28605;SDS011;46498;49.968;7.754;2023-09-18T04:11:51;14.15;;;4.68;;
28605;SDS011;46498;49.968;7.754;2023-09-18T04:16:53;15.35;;;4.65;;
28605;SDS011;46498;49.968;7.754;2023-09-18T04:21:54;13.45;;;4.12;;
28605;SDS011;46498;49.968;7.754;2023-09-18T04:26:56;13.60;;;3.85;;
28605;SDS011;46498;49.968;7.754;2023-09-18T04:31:57;12.98;;;3.65;;
28605;SDS011;46498;49.968;7.754;2023-09-18T04:36:59;14.57;;;4.10;;
28605;SDS011;46498;49.968;7.754;2023-09-18T04:42:01;25.60;;;4.12;;
28605;SDS011;46498;49.968;7.754;2023-09-18T04:47:04;21.02;;;4.72;;
28605;SDS011;46498;49.968;7.754;2023-09-18T04:52:06;13.93;;;4.03;;
28605;SDS011;46498;49.968;7.754;2023-09-18T04:57:07;15.50;;;4.15;;
28605;SDS011;46498;49.968;7.754;2023-09-18T05:02:08;16.08;;;4.75;;
28605;SDS011;46498;49.968;7.754;2023-09-18T05:07:11;15.02;;;4.18;;
28605;SDS011;46498;49.968;7.754;2023-09-18T05:12:11;12.88;;;3.92;;
28605;SDS011;46498;49.968;7.754;2023-09-18T05:17:14;15.23;;;4.57;;
28605;SDS011;46498;49.968;7.754;2023-09-18T05:22:17;19.25;;;4.72;;
28605;SDS011;46498;49.968;7.754;2023-09-18T05:27:18;24.48;;;4.95;;
28605;SDS011;46498;49.968;7.754;2023-09-18T05:32:19;14.57;;;4.20;;
28605;SDS011;46498;49.968;7.754;2023-09-18T05:37:20;20.65;;;3.92;;
28605;SDS011;46498;49.968;7.754;2023-09-18T05:42:21;12.82;;;3.85;;
28605;SDS011;46498;49.968;7.754;2023-09-18T05:47:22;16.23;;;4.72;;
28605;SDS011;46498;49.968;7.754;2023-09-18T05:52:24;17.05;;;3.97;;
28605;SDS011;46498;49.968;7.754;2023-09-18T05:57:26;20.17;;;4.00;;
28605;SDS011;46498;49.968;7.754;2023-09-18T06:02:28;20.23;;;4.25;;
28605;SDS011;46498;49.968;7.754;2023-09-18T06:07:29;10.95;;;3.47;;
28605;SDS011;46498;49.968;7.754;2023-09-18T06:12:30;22.15;;;4.25;;
28605;SDS011;46498;49.968;7.754;2023-09-18T06:17:31;14.25;;;4.12;;
28605;SDS011;46498;49.968;7.754;2023-09-18T06:22:32;16.75;;;3.62;;
28605;SDS011;46498;49.968;7.754;2023-09-18T06:27:34;14.30;;;3.30;;
28605;SDS011;46498;49.968;7.754;2023-09-18T06:32:36;13.30;;;3.22;;
28605;SDS011;46498;49.968;7.754;2023-09-18T06:37:40;12.52;;;3.40;;
28605;SDS011;46498;49.968;7.754;2023-09-18T06:42:41;16.87;;;4.07;;
28605;SDS011;46498;49.968;7.754;2023-09-18T06:47:43;13.88;;;3.60;;
28605;SDS011;46498;49.968;7.754;2023-09-18T06:52:44;14.40;;;3.97;;
28605;SDS011;46498;49.968;7.754;2023-09-18T06:57:46;19.10;;;3.80;;
28605;SDS011;46498;49.968;7.754;2023-09-18T07:02:49;10.93;;;3.60;;
28605;SDS011;46498;49.968;7.754;2023-09-18T07:07:50;7.10;;;2.58;;
28605;SDS011;46498;49.968;7.754;2023-09-18T07:12:51;17.73;;;3.22;;
28605;SDS011;46498;49.968;7.754;2023-09-18T07:17:51;8.13;;;2.28;;
28605;SDS011;46498;49.968;7.754;2023-09-18T07:22:52;11.70;;;2.83;;
28605;SDS011;46498;49.968;7.754;2023-09-18T07:27:54;9.57;;;2.67;;
28605;SDS011;46498;49.968;7.754;2023-09-18T07:32:55;10.55;;;2.30;;
28605;SDS011;46498;49.968;7.754;2023-09-18T07:37:59;9.95;;;2.50;;
28605;SDS011;46498;49.968;7.754;2023-09-18T07:43:00;12.20;;;2.75;;
28605;SDS011;46498;49.968;7.754;2023-09-18T07:48:01;8.43;;;1.98;;
28605;SDS011;46498;49.968;7.754;2023-09-18T07:53:02;8.63;;;2.20;;
28605;SDS011;46498;49.968;7.754;2023-09-18T07:58:03;9.00;;;2.10;;
28605;SDS011;46498;49.968;7.754;2023-09-18T08:03:05;6.85;;;2.22;;
28605;SDS011;46498;49.968;7.754;2023-09-18T08:08:06;5.97;;;1.90;;
28605;SDS011;46498;49.968;7.754;2023-09-18T08:13:07;9.98;;;1.90;;
28605;SDS011;46498;49.968;7.754;2023-09-18T08:18:08;11.23;;;2.50;;
28605;SDS011;46498;49.968;7.754;2023-09-18T08:23:09;8.05;;;2.00;;
28605;SDS011;46498;49.968;7.754;2023-09-18T08:28:11;9.40;;;2.70;;
28605;SDS011;46498;49.968;7.754;2023-09-18T08:33:12;7.40;;;2.37;;
28605;SDS011;46498;49.968;7.754;2023-09-18T08:38:16;7.97;;;2.83;;
28605;SDS011;46498;49.968;7.754;2023-09-18T08:43:17;10.88;;;2.83;;
28605;SDS011;46498;49.968;7.754;2023-09-18T08:48:20;5.45;;;2.35;;
28605;SDS011;46498;49.968;7.754;2023-09-18T08:53:21;9.88;;;2.60;;
28605;SDS011;46498;49.968;7.754;2023-09-18T08:58:22;9.00;;;3.12;;
28605;SDS011;46498;49.968;7.754;2023-09-18T09:03:24;5.68;;;2.85;;
28605;SDS011;46498;49.968;7.754;2023-09-18T09:08:28;8.40;;;2.97;;
28605;SDS011;46498;49.968;7.754;2023-09-18T09:13:29;6.43;;;2.80;;
28605;SDS011;46498;49.968;7.754;2023-09-18T09:18:48;6.07;;;2.90;;
28605;SDS011;46498;49.968;7.754;2023-09-18T09:23:51;8.43;;;3.08;;
28605;SDS011;46498;49.968;7.754;2023-09-18T09:28:55;6.40;;;3.60;;
28605;SDS011;46498;49.968;7.754;2023-09-18T09:33:57;10.77;;;4.70;;
28605;SDS011;46498;49.968;7.754;2023-09-18T09:38:58;9.05;;;5.00;;
28605;SDS011;46498;49.968;7.754;2023-09-18T09:44:00;6.87;;;4.95;;
28605;SDS011;46498;49.968;7.754;2023-09-18T09:49:02;9.95;;;5.62;;
28605;SDS011;46498;49.968;7.754;2023-09-18T09:54:05;10.90;;;5.53;;
28605;SDS011;46498;49.968;7.754;2023-09-18T09:59:07;8.35;;;5.65;;
28605;SDS011;46498;49.968;7.754;2023-09-18T10:04:09;8.95;;;5.28;;
28605;SDS011;46498;49.968;7.754;2023-09-18T10:09:13;8.75;;;5.50;;
28605;SDS011;46498;49.968;7.754;2023-09-18T10:14:16;8.95;;;5.15;;
28605;SDS011;46498;49.968;7.754;2023-09-18T10:25:43;10.73;;;5.82;;
28605;SDS011;46498;49.968;7.754;2023-09-18T10:30:45;10.43;;;5.30;;
28605;SDS011;46498;49.968;7.754;2023-09-18T10:35:47;7.47;;;5.47;;
28605;SDS011;46498;49.968;7.754;2023-09-18T10:40:48;9.93;;;4.73;;
28605;SDS011;46498;49.968;7.754;2023-09-18T10:50:52;6.90;;;4.75;;
28605;SDS011;46498;49.968;7.754;2023-09-18T10:55:53;6.32;;;4.18;;
28605;SDS011;46498;49.968;7.754;2023-09-18T11:00:55;6.68;;;4.03;;
28605;SDS011;46498;49.968;7.754;2023-09-18T11:06:07;9.05;;;4.25;;
28605;SDS011;46498;49.968;7.754;2023-09-18T11:11:11;7.85;;;3.80;;
28605;SDS011;46498;49.968;7.754;2023-09-18T11:21:39;6.95;;;4.37;;
28605;SDS011;46498;49.968;7.754;2023-09-18T11:26:40;9.75;;;4.00;;
28605;SDS011;46498;49.968;7.754;2023-09-18T11:31:49;10.27;;;4.25;;
28605;SDS011;46498;49.968;7.754;2023-09-18T11:36:55;5.28;;;3.58;;
28605;SDS011;46498;49.968;7.754;2023-09-18T11:42:05;7.93;;;4.03;;
28605;SDS011;46498;49.968;7.754;2023-09-18T11:47:09;11.98;;;3.97;;
28605;SDS011;46498;49.968;7.754;2023-09-18T11:52:17;7.53;;;4.32;;
28605;SDS011;46498;49.968;7.754;2023-09-18T11:57:20;6.18;;;3.62;;
28605;SDS011;46498;49.968;7.754;2023-09-18T12:02:28;6.22;;;3.70;;
28605;SDS011;46498;49.968;7.754;2023-09-18T12:07:37;6.68;;;3.30;;
28605;SDS011;46498;49.968;7.754;2023-09-18T12:12:39;4.50;;;3.60;;
28605;SDS011;46498;49.968;7.754;2023-09-18T12:17:45;4.43;;;3.92;;
28605;SDS011;46498;49.968;7.754;2023-09-18T12:22:47;4.72;;;3.53;;
28605;SDS011;46498;49.968;7.754;2023-09-18T12:32:53;6.60;;;2.85;;
28605;SDS011;46498;49.968;7.754;2023-09-18T12:37:59;2.90;;;2.35;;
28605;SDS011;46498;49.968;7.754;2023-09-18T12:43:01;4.28;;;2.70;;
28605;SDS011;46498;49.968;7.754;2023-09-18T12:48:06;4.75;;;3.42;;
28605;SDS011;46498;49.968;7.754;2023-09-18T12:58:22;3.50;;;2.03;;
28605;SDS011;46498;49.968;7.754;2023-09-18T13:03:24;3.50;;;2.00;;
28605;SDS011;46498;49.968;7.754;2023-09-18T13:08:25;9.98;;;2.20;;
28605;SDS011;46498;49.968;7.754;2023-09-18T13:13:27;5.12;;;1.98;;
28605;SDS011;46498;49.968;7.754;2023-09-18T13:18:27;5.12;;;2.12;;
28605;SDS011;46498;49.968;7.754;2023-09-18T13:23:29;6.43;;;1.77;;
28605;SDS011;46498;49.968;7.754;2023-09-18T13:28:33;7.05;;;2.00;;
28605;SDS011;46498;49.968;7.754;2023-09-18T13:33:39;7.05;;;2.20;;
28605;SDS011;46498;49.968;7.754;2023-09-18T13:38:41;4.22;;;1.85;;
28605;SDS011;46498;49.968;7.754;2023-09-18T13:43:44;4.57;;;1.83;;
28605;SDS011;46498;49.968;7.754;2023-09-18T13:48:46;8.07;;;2.45;;
28605;SDS011;46498;49.968;7.754;2023-09-18T13:53:48;3.92;;;2.20;;
28605;SDS011;46498;49.968;7.754;2023-09-18T13:58:49;6.55;;;1.85;;
28605;SDS011;46498;49.968;7.754;2023-09-18T14:03:50;4.18;;;2.03;;
28605;SDS011;46498;49.968;7.754;2023-09-18T14:08:51;4.15;;;1.70;;
28605;SDS011;46498;49.968;7.754;2023-09-18T14:13:52;6.70;;;2.03;;
28605;SDS011;46498;49.968;7.754;2023-09-18T14:18:53;5.93;;;2.12;;
28605;SDS011;46498;49.968;7.754;2023-09-18T14:23:54;6.65;;;1.67;;
28605;SDS011;46498;49.968;7.754;2023-09-18T14:28:55;3.83;;;1.80;;
28605;SDS011;46498;49.968;7.754;2023-09-18T14:33:56;4.80;;;1.85;;
28605;SDS011;46498;49.968;7.754;2023-09-18T14:39:01;4.37;;;1.90;;
28605;SDS011;46498;49.968;7.754;2023-09-18T14:44:03;4.43;;;1.65;;
28605;SDS011;46498;49.968;7.754;2023-09-18T14:49:06;4.00;;;1.80;;
28605;SDS011;46498;49.968;7.754;2023-09-18T14:54:07;4.18;;;1.60;;
28605;SDS011;46498;49.968;7.754;2023-09-18T14:59:08;5.43;;;1.90;;
28605;SDS011;46498;49.968;7.754;2023-09-18T15:04:09;3.60;;;1.70;;
28605;SDS011;46498;49.968;7.754;2023-09-18T15:09:11;5.07;;;1.67;;
28605;SDS011;46498;49.968;7.754;2023-09-18T15:14:11;4.10;;;1.90;;
28605;SDS011;46498;49.968;7.754;2023-09-18T15:19:12;5.97;;;1.77;;
28605;SDS011;46498;49.968;7.754;2023-09-18T15:24:14;4.43;;;1.65;;
28605;SDS011;46498;49.968;7.754;2023-09-18T15:29:15;3.72;;;2.28;;
28605;SDS011;46498;49.968;7.754;2023-09-18T15:34:17;5.90;;;1.92;;
28605;SDS011;46498;49.968;7.754;2023-09-18T15:39:18;3.83;;;1.65;;
28605;SDS011;46498;49.968;7.754;2023-09-18T15:44:19;4.57;;;1.80;;
28605;SDS011;46498;49.968;7.754;2023-09-18T15:49:20;3.55;;;1.87;;
28605;SDS011;46498;49.968;7.754;2023-09-18T15:54:21;3.78;;;1.77;;
28605;SDS011;46498;49.968;7.754;2023-09-18T15:59:22;4.85;;;2.08;;
28605;SDS011;46498;49.968;7.754;2023-09-18T16:04:23;7.15;;;2.05;;
28605;SDS011;46498;49.968;7.754;2023-09-18T16:09:24;5.43;;;1.73;;
28605;SDS011;46498;49.968;7.754;2023-09-18T16:14:25;10.32;;;2.37;;
28605;SDS011;46498;49.968;7.754;2023-09-18T16:19:26;5.15;;;1.92;;
28605;SDS011;46498;49.968;7.754;2023-09-18T16:24:27;15.27;;;7.05;;
28605;SDS011;46498;49.968;7.754;2023-09-18T16:29:28;6.50;;;2.42;;
28605;SDS011;46498;49.968;7.754;2023-09-18T16:34:30;7.45;;;2.65;;
28605;SDS011;46498;49.968;7.754;2023-09-18T16:39:31;8.90;;;2.45;;
28605;SDS011;46498;49.968;7.754;2023-09-18T16:44:31;7.47;;;2.05;;
28605;SDS011;46498;49.968;7.754;2023-09-18T16:49:32;8.90;;;2.25;;
28605;SDS011;46498;49.968;7.754;2023-09-18T16:54:33;9.25;;;2.58;;
28605;SDS011;46498;49.968;7.754;2023-09-18T16:59:34;7.55;;;1.98;;
28605;SDS011;46498;49.968;7.754;2023-09-18T17:04:35;12.57;;;2.25;;
28605;SDS011;46498;49.968;7.754;2023-09-18T17:09:40;7.28;;;2.28;;
28605;SDS011;46498;49.968;7.754;2023-09-18T17:14:41;11.00;;;2.70;;
28605;SDS011;46498;49.968;7.754;2023-09-18T17:19:42;12.63;;;3.92;;
28605;SDS011;46498;49.968;7.754;2023-09-18T17:24:43;5.40;;;2.10;;
28605;SDS011;46498;49.968;7.754;2023-09-18T17:29:44;3.58;;;1.85;;
28605;SDS011;46498;49.968;7.754;2023-09-18T17:34:46;7.47;;;2.17;;
28605;SDS011;46498;49.968;7.754;2023-09-18T17:39:48;3.87;;;1.90;;
28605;SDS011;46498;49.968;7.754;2023-09-18T17:44:48;4.53;;;1.60;;
28605;SDS011;46498;49.968;7.754;2023-09-18T17:49:50;8.88;;;1.90;;
28605;SDS011;46498;49.968;7.754;2023-09-18T17:54:51;15.85;;;6.68;;
28605;SDS011;46498;49.968;7.754;2023-09-18T18:04:55;4.53;;;1.67;;
28605;SDS011;46498;49.968;7.754;2023-09-18T18:09:57;6.40;;;2.20;;
28605;SDS011;46498;49.968;7.754;2023-09-18T18:14:57;4.05;;;1.87;;
28605;SDS011;46498;49.968;7.754;2023-09-18T18:19:58;5.78;;;1.87;;
28605;SDS011;46498;49.968;7.754;2023-09-18T18:24:59;4.22;;;2.05;;
28605;SDS011;46498;49.968;7.754;2023-09-18T18:30:00;7.18;;;2.15;;
28605;SDS011;46498;49.968;7.754;2023-09-18T18:35:02;10.88;;;1.75;;
28605;SDS011;46498;49.968;7.754;2023-09-18T18:40:03;4.37;;;1.73;;
28605;SDS011;46498;49.968;7.754;2023-09-18T18:45:07;7.25;;;2.00;;
28605;SDS011;46498;49.968;7.754;2023-09-18T18:50:09;4.05;;;1.50;;
28605;SDS011;46498;49.968;7.754;2023-09-18T18:55:11;5.10;;;1.92;;
28605;SDS011;46498;49.968;7.754;2023-09-18T19:00:11;4.70;;;1.67;;
28605;SDS011;46498;49.968;7.754;2023-09-18T19:05:13;5.82;;;1.98;;
28605;SDS011;46498;49.968;7.754;2023-09-18T19:10:14;3.70;;;1.35;;
28605;SDS011;46498;49.968;7.754;2023-09-18T19:15:15;7.25;;;2.08;;
28605;SDS011;46498;49.968;7.754;2023-09-18T19:20:16;4.62;;;1.95;;
28605;SDS011;46498;49.968;7.754;2023-09-18T19:25:17;2.50;;;1.40;;
28605;SDS011;46498;49.968;7.754;2023-09-18T19:30:18;4.40;;;1.67;;
28605;SDS011;46498;49.968;7.754;2023-09-18T19:35:19;3.95;;;1.73;;
28605;SDS011;46498;49.968;7.754;2023-09-18T19:40:20;3.97;;;1.55;;
28605;SDS011;46498;49.968;7.754;2023-09-18T19:45:21;4.18;;;1.60;;
28605;SDS011;46498;49.968;7.754;2023-09-18T19:50:22;4.75;;;1.52;;
28605;SDS011;46498;49.968;7.754;2023-09-18T19:55:26;3.92;;;2.00;;
28605;SDS011;46498;49.968;7.754;2023-09-18T20:00:30;3.33;;;2.03;;
28605;SDS011;46498;49.968;7.754;2023-09-18T20:05:31;3.60;;;1.95;;
28605;SDS011;46498;49.968;7.754;2023-09-18T20:10:33;4.75;;;1.90;;
28605;SDS011;46498;49.968;7.754;2023-09-18T20:15:34;4.85;;;1.75;;
28605;SDS011;46498;49.968;7.754;2023-09-18T20:20:35;2.80;;;1.30;;
28605;SDS011;46498;49.968;7.754;2023-09-18T20:25:36;8.27;;;1.83;;
28605;SDS011;46498;49.968;7.754;2023-09-18T20:30:40;3.97;;;1.30;;
28605;SDS011;46498;49.968;7.754;2023-09-18T20:35:42;3.87;;;1.20;;
28605;SDS011;46498;49.968;7.754;2023-09-18T20:40:43;2.40;;;1.08;;
28605;SDS011;46498;49.968;7.754;2023-09-18T20:45:44;5.07;;;1.40;;
28605;SDS011;46498;49.968;7.754;2023-09-18T20:50:46;4.62;;;1.10;;
28605;SDS011;46498;49.968;7.754;2023-09-18T20:55:48;4.57;;;1.60;;
28605;SDS011;46498;49.968;7.754;2023-09-18T21:00:49;5.62;;;1.30;;
28605;SDS011;46498;49.968;7.754;2023-09-18T21:05:52;3.95;;;1.00;;
28605;SDS011;46498;49.968;7.754;2023-09-18T21:10:56;6.50;;;1.40;;
28605;SDS011;46498;49.968;7.754;2023-09-18T21:15:58;2.47;;;1.30;;
28605;SDS011;46498;49.968;7.754;2023-09-18T21:21:03;3.08;;;1.30;;
28605;SDS011;46498;49.968;7.754;2023-09-18T21:26:04;2.47;;;1.35;;
28605;SDS011;46498;49.968;7.754;2023-09-18T21:31:12;2.75;;;1.30;;
28605;SDS011;46498;49.968;7.754;2023-09-18T21:36:16;4.12;;;1.33;;
28605;SDS011;46498;49.968;7.754;2023-09-18T21:41:22;3.03;;;1.15;;
28605;SDS011;46498;49.968;7.754;2023-09-18T21:46:23;6.05;;;1.37;;
28605;SDS011;46498;49.968;7.754;2023-09-18T21:51:24;5.55;;;1.70;;
28605;SDS011;46498;49.968;7.754;2023-09-18T21:56:25;2.78;;;1.40;;
28605;SDS011;46498;49.968;7.754;2023-09-18T22:01:26;4.68;;;1.50;;
28605;SDS011;46498;49.968;7.754;2023-09-18T22:06:28;4.87;;;1.50;;
28605;SDS011;46498;49.968;7.754;2023-09-18T22:11:29;5.43;;;1.40;;
28605;SDS011;46498;49.968;7.754;2023-09-18T22:16:33;3.12;;;1.90;;
28605;SDS011;46498;49.968;7.754;2023-09-18T22:21:34;3.58;;;1.50;;
28605;SDS011;46498;49.968;7.754;2023-09-18T22:26:35;4.57;;;1.37;;
28605;SDS011;46498;49.968;7.754;2023-09-18T22:31:38;3.03;;;1.60;;
28605;SDS011;46498;49.968;7.754;2023-09-18T22:36:40;3.57;;;1.40;;
28605;SDS011;46498;49.968;7.754;2023-09-18T22:57:40;3.95;;;1.58;;
28605;SDS011;46498;49.968;7.754;2023-09-18T23:02:46;1.73;;;1.00;;
28605;SDS011;46498;49.968;7.754;2023-09-18T23:07:48;2.28;;;1.35;;
28605;SDS011;46498;49.968;7.754;2023-09-18T23:12:58;2.47;;;1.27;;
28605;SDS011;46498;49.968;7.754;2023-09-18T23:18:04;2.10;;;1.33;;
28605;SDS011;46498;49.968;7.754;2023-09-18T23:23:06;3.60;;;1.50;;
28605;SDS011;46498;49.968;7.754;2023-09-18T23:28:07;3.20;;;2.10;;
28605;SDS011;46498;49.968;7.754;2023-09-18T23:33:08;3.62;;;1.50;;
28605;SDS011;46498;49.968;7.754;2023-09-18T23:38:11;3.72;;;1.90;;
28605;SDS011;46498;49.968;7.754;2023-09-18T23:43:12;4.68;;;1.70;;
28605;SDS011;46498;49.968;7.754;2023-09-18T23:48:17;3.33;;;1.75;;
28605;SDS011;46498;49.968;7.754;2023-09-18T23:53:19;2.08;;;1.50;;
28605;SDS011;46498;49.968;7.754;2023-09-18T23:58:25;4.47;;;2.17;;
